createdAt,value
2018-09-08T00:00:03.340Z,0
2018-09-08T00:05:03.325Z,0
2018-09-08T00:10:02.890Z,0
2018-09-08T00:15:02.666Z,0
2018-09-08T00:20:03.231Z,0
2018-09-08T00:25:02.790Z,0
2018-09-08T00:30:03.420Z,0
2018-09-08T00:35:02.999Z,0
2018-09-08T00:40:02.851Z,0
2018-09-08T00:45:02.530Z,0
2018-09-08T00:50:03.209Z,0
2018-09-08T00:55:02.733Z,0
2018-09-08T01:00:03.586Z,0
2018-09-08T01:05:03.026Z,0
2018-09-08T01:10:02.840Z,0
2018-09-08T01:15:02.475Z,0
2018-09-08T01:20:03.145Z,0
2018-09-08T01:25:02.752Z,0
2018-09-08T01:30:02.492Z,0
2018-09-08T01:35:03.274Z,0
2018-09-08T01:40:02.926Z,0
2018-09-08T01:45:02.573Z,0
2018-09-08T01:50:03.128Z,0
2018-09-08T01:55:02.665Z,0
2018-09-08T02:00:03.276Z,0
2018-09-08T02:05:02.879Z,0
2018-09-08T02:10:02.688Z,0
2018-09-08T02:15:03.257Z,0
2018-09-08T02:20:02.741Z,0
2018-09-08T02:25:03.434Z,0
2018-09-08T02:30:02.964Z,0
2018-09-08T02:35:02.559Z,0
2018-09-08T02:40:03.264Z,0
2018-09-08T02:45:02.792Z,0
2018-09-08T02:50:02.426Z,0
2018-09-08T02:55:02.916Z,0
2018-09-08T03:00:02.573Z,0
2018-09-08T03:05:03.199Z,0
2018-09-08T03:10:02.835Z,0
2018-09-08T03:15:02.615Z,0
2018-09-08T03:20:03.312Z,0
2018-09-08T03:25:02.756Z,0
2018-09-08T03:30:02.481Z,0
2018-09-08T03:35:03.196Z,0
2018-09-08T03:40:02.831Z,0
2018-09-08T03:45:02.530Z,0
2018-09-08T03:50:03.051Z,0
2018-09-08T03:55:02.662Z,0
2018-09-08T04:00:03.272Z,0
2018-09-08T04:05:02.890Z,0
2018-09-08T04:10:02.460Z,0
2018-09-08T04:15:02.957Z,0
2018-09-08T04:20:02.686Z,0
2018-09-08T04:25:03.259Z,2
2018-09-08T04:30:03.285Z,5
2018-09-08T04:35:02.944Z,14
2018-09-08T04:40:02.486Z,29
2018-09-08T04:45:03.090Z,38
2018-09-08T04:50:02.722Z,53
2018-09-08T04:55:02.361Z,65
2018-09-08T05:00:02.889Z,101
2018-09-08T05:05:02.534Z,229
2018-09-08T05:10:03.228Z,312
2018-09-08T05:15:02.778Z,408
2018-09-08T05:20:02.428Z,502
2018-09-08T05:25:03.044Z,633
2018-09-08T05:30:02.531Z,714
2018-09-08T05:35:03.264Z,798
2018-09-08T05:40:03.369Z,929
2018-09-08T05:45:02.872Z,1000
2018-09-08T05:50:02.391Z,1000
2018-09-08T05:55:02.933Z,1000
2018-09-08T06:00:02.506Z,2000
2018-09-08T06:05:03.150Z,2000
2018-09-08T06:10:02.726Z,3000
2018-09-08T06:15:03.420Z,3000
2018-09-08T06:20:03.030Z,3000
2018-09-08T06:25:02.657Z,2000
2018-09-08T06:30:03.246Z,3000
2018-09-08T06:35:02.952Z,3000
2018-09-08T06:40:02.740Z,3000
2018-09-08T06:45:03.542Z,3000
2018-09-08T06:50:03.149Z,3000
2018-09-08T06:55:02.774Z,4000
2018-09-08T07:00:03.615Z,3000
2018-09-08T07:05:03.195Z,3000
2018-09-08T07:10:02.858Z,3000
2018-09-08T07:15:02.800Z,2000
2018-09-08T07:20:02.641Z,3000
2018-09-08T07:25:03.340Z,3000
2018-09-08T07:30:02.466Z,3000
2018-09-08T07:35:03.034Z,3000
2018-09-08T07:40:02.650Z,4000
2018-09-08T07:45:03.188Z,4000
2018-09-08T07:50:02.725Z,5000
2018-09-08T07:55:03.365Z,6000
2018-09-08T08:00:02.982Z,20000
2018-09-08T08:05:02.589Z,20000
2018-09-08T08:10:03.569Z,21000
2018-09-08T08:15:03.142Z,17000
2018-09-08T08:20:02.836Z,25000
2018-09-08T08:25:03.387Z,28000
2018-09-08T08:30:03.055Z,37000
2018-09-08T08:35:02.669Z,16000
2018-09-08T08:40:03.326Z,20000
2018-09-08T08:45:02.859Z,20000
2018-09-08T08:50:02.539Z,15000
2018-09-08T08:55:03.122Z,23000
2018-09-08T09:00:02.692Z,18000
2018-09-08T09:05:03.345Z,27000
2018-09-08T09:10:03.039Z,28000
2018-09-08T09:15:03.862Z,17000
2018-09-08T09:20:02.428Z,23000
2018-09-08T09:25:03.311Z,24000
2018-09-08T09:30:02.686Z,33000
2018-09-08T09:35:03.341Z,36000
2018-09-08T09:40:02.901Z,11000
2018-09-08T09:45:02.739Z,32000
2018-09-08T09:50:02.424Z,35000
2018-09-08T09:55:03.021Z,15000
2018-09-08T10:00:02.533Z,8000
2018-09-08T10:05:03.135Z,8000
2018-09-08T10:10:02.782Z,22000
2018-09-08T10:15:03.309Z,39000
2018-09-08T10:20:02.831Z,19000
2018-09-08T10:25:03.350Z,13000
2018-09-08T10:30:04.170Z,19000
2018-09-08T10:35:03.164Z,10000
2018-09-08T10:40:02.742Z,38000
2018-09-08T10:45:02.515Z,16000
2018-09-08T10:50:03.029Z,14000
2018-09-08T10:55:02.598Z,15000
2018-09-08T11:00:03.391Z,18000
2018-09-08T11:05:02.964Z,5000
2018-09-08T11:10:02.659Z,33000
2018-09-08T11:15:03.176Z,55000
2018-09-08T11:20:02.805Z,42000
2018-09-08T11:25:02.394Z,46000
2018-09-08T11:30:03.003Z,50000
2018-09-08T11:35:02.577Z,35000
2018-09-08T11:40:03.224Z,33000
2018-09-08T11:45:02.743Z,50000
2018-09-08T11:50:02.435Z,35000
2018-09-08T11:55:02.996Z,27000
2018-09-08T12:00:02.637Z,8000
2018-09-08T12:05:03.339Z,7000
2018-09-08T12:10:02.966Z,5000
2018-09-08T12:15:02.622Z,5000
2018-09-08T12:20:03.266Z,9000
2018-09-08T12:25:02.895Z,11000
2018-09-08T12:30:02.538Z,10000
2018-09-08T12:35:03.221Z,9000
2018-09-08T12:40:02.821Z,13000
2018-09-08T12:45:02.365Z,10000
2018-09-08T12:50:03.011Z,34000
2018-09-08T12:55:02.535Z,16000
2018-09-08T13:00:03.093Z,11000
2018-09-08T13:05:02.633Z,18000
2018-09-08T13:10:03.266Z,18000
2018-09-08T13:15:02.887Z,10000
2018-09-08T13:20:02.594Z,10000
2018-09-08T13:25:03.165Z,8000
2018-09-08T13:30:02.690Z,8000
2018-09-08T13:35:03.300Z,7000
2018-09-08T13:40:02.914Z,5000
2018-09-08T13:45:02.608Z,5000
2018-09-08T13:50:03.201Z,6000
2018-09-08T13:55:02.752Z,6000
2018-09-08T14:00:02.457Z,6000
2018-09-08T14:05:03.130Z,3000
2018-09-08T14:10:02.807Z,4000
2018-09-08T14:15:02.557Z,12000
2018-09-08T14:20:03.210Z,9000
2018-09-08T14:25:02.833Z,6000
2018-09-08T14:30:02.500Z,5000
2018-09-08T14:35:03.161Z,5000
2018-09-08T14:40:02.851Z,5000
2018-09-08T14:45:02.896Z,7000
2018-09-08T14:50:02.813Z,5000
2018-09-08T14:55:02.448Z,5000
2018-09-08T15:00:03.038Z,5000
2018-09-08T15:05:02.903Z,5000
2018-09-08T15:10:03.022Z,5000
2018-09-08T15:15:02.661Z,7000
2018-09-08T15:20:03.290Z,7000
2018-09-08T15:25:02.926Z,10000
2018-09-08T15:30:02.721Z,10000
2018-09-08T15:35:02.406Z,4000
2018-09-08T15:40:03.409Z,4000
2018-09-08T15:45:03.312Z,4000
2018-09-08T15:50:03.039Z,4000
2018-09-08T15:55:02.598Z,3000
2018-09-08T16:00:03.368Z,2000
2018-09-08T16:05:03.001Z,1000
2018-09-08T16:10:02.990Z,1000
2018-09-08T16:15:02.581Z,1000
2018-09-08T16:20:03.274Z,1000
2018-09-08T16:25:02.821Z,1000
2018-09-08T16:30:03.402Z,1000
2018-09-08T16:35:02.917Z,1000
2018-09-08T16:40:02.615Z,1000
2018-09-08T16:45:03.296Z,1000
2018-09-08T16:50:02.947Z,1000
2018-09-08T16:55:03.032Z,1000
2018-09-08T17:00:02.608Z,1000
2018-09-08T17:05:03.447Z,1000
2018-09-08T17:10:02.740Z,1000
2018-09-08T17:15:03.560Z,951
2018-09-08T17:20:03.114Z,538
2018-09-08T17:25:02.694Z,434
2018-09-08T17:30:03.217Z,390
2018-09-08T17:35:02.736Z,278
2018-09-08T17:40:03.438Z,297
2018-09-08T17:45:02.970Z,260
2018-09-08T17:50:02.618Z,196
2018-09-08T17:55:03.167Z,99
2018-09-08T18:00:02.728Z,65
2018-09-08T18:05:03.248Z,50
2018-09-08T18:10:02.927Z,43
2018-09-08T18:15:02.556Z,31
2018-09-08T18:20:03.176Z,21
2018-09-08T18:25:02.678Z,15
2018-09-08T18:30:03.253Z,7
2018-09-08T18:35:02.822Z,3
2018-09-08T18:40:02.393Z,1
2018-09-08T18:45:02.941Z,0
2018-09-08T18:50:02.528Z,0
2018-09-08T18:55:03.174Z,0
2018-09-08T19:00:02.766Z,0
2018-09-08T19:05:03.285Z,0
2018-09-08T19:10:02.896Z,0
2018-09-08T19:15:02.511Z,0
2018-09-08T19:20:03.484Z,0
2018-09-08T19:25:02.886Z,0
2018-09-08T19:30:02.429Z,0
2018-09-08T19:35:02.950Z,0
2018-09-08T19:40:02.629Z,0
2018-09-08T19:45:03.239Z,0
2018-09-08T19:50:02.763Z,0
2018-09-08T19:55:03.332Z,0
2018-09-08T20:00:03.436Z,0
2018-09-08T20:05:03.044Z,0
2018-09-08T20:10:02.700Z,0
2018-09-08T20:15:03.425Z,0
2018-09-08T20:20:02.994Z,0
2018-09-08T20:25:02.754Z,0
2018-09-08T20:30:03.402Z,0
2018-09-08T20:35:03.103Z,0
2018-09-08T20:40:03.265Z,0
2018-09-08T20:45:02.820Z,0
2018-09-08T20:50:02.398Z,0
2018-09-08T20:55:03.130Z,0
2018-09-08T21:00:02.840Z,0
2018-09-08T21:05:02.429Z,0
2018-09-08T21:10:03.120Z,0
2018-09-08T21:15:02.725Z,0
2018-09-08T21:20:03.368Z,0
2018-09-08T21:25:02.980Z,0
2018-09-08T21:30:02.690Z,0
2018-09-08T21:35:03.308Z,0
2018-09-08T21:40:02.924Z,0
2018-09-08T21:45:02.588Z,0
2018-09-08T21:50:03.265Z,0
2018-09-08T21:55:02.898Z,0
2018-09-08T22:00:02.491Z,0
2018-09-08T22:05:03.246Z,0
2018-09-08T22:10:02.905Z,0
2018-09-08T22:15:02.573Z,0
2018-09-08T22:20:03.312Z,0
2018-09-08T22:25:02.970Z,0
2018-09-08T22:30:02.580Z,0
2018-09-08T22:35:03.259Z,0
2018-09-08T22:40:03.004Z,0
2018-09-08T22:45:02.716Z,0
2018-09-08T22:50:03.359Z,0
2018-09-08T22:55:03.055Z,0
2018-09-08T23:00:02.643Z,0
2018-09-08T23:05:03.020Z,0
2018-09-08T23:10:02.685Z,0
2018-09-08T23:15:03.223Z,0
2018-09-08T23:20:02.945Z,0
2018-09-08T23:25:02.594Z,0
2018-09-08T23:30:03.318Z,0
2018-09-08T23:35:02.903Z,0
2018-09-08T23:40:02.662Z,0
2018-09-08T23:45:03.345Z,0
2018-09-08T23:50:02.973Z,0
2018-09-08T23:55:02.649Z,0
